| time (UTC) | temp F | wind direction | speed MPH | gust MPH | rain 1hr in | rain 24hr in | rain mn in | humidity % | barometer mb |
| 20260507200557 | 63 | 286 | 3.0 | 3.0 | 0.00 | 0.00 | 0.00 | 41 | 1301.5 |
| 20260507200053 | 61 | 326 | 2.0 | 2.0 | 0.00 | 0.00 | 0.00 | 39 | 1301.3 |
| 20260507195551 | 63 | 297 | 5.0 | 8.0 | 0.00 | 0.00 | 0.00 | 40 | 1301.4 |
| 20260507195048 | 62 | 199 | 3.0 | 3.0 | 0.00 | 0.00 | 0.00 | 42 | 1301.7 |
| 20260507194544 | 63 | 146 | 4.0 | 7.0 | 0.00 | 0.00 | 0.00 | 41 | 1301.7 |
| 20260507194040 | 63 | 239 | 7.0 | 8.0 | 0.00 | 0.00 | 0.00 | 39 | 1301.7 |
| 20260507193537 | 62 | 287 | 7.0 | 7.0 | 0.00 | 0.00 | 0.00 | 39 | 1301.8 |
| 20260507193034 | 62 | 267 | 2.0 | 3.0 | 0.00 | 0.00 | 0.00 | 41 | 1301.7 |
| 20260507192530 | 61 | 350 | 3.0 | 3.0 | 0.00 | 0.00 | 0.00 | 41 | 1302.0 |
| 20260507192027 | 61 | 319 | 5.0 | 7.0 | 0.00 | 0.00 | 0.00 | 38 | 1301.8 |
| 20260507191523 | 61 | 349 | 2.0 | 2.0 | 0.00 | 0.00 | 0.00 | 39 | 1301.8 |
| 20260507191020 | 62 | 299 | 6.0 | 8.0 | 0.00 | 0.00 | 0.00 | 39 | 1302.0 |
| 20260507190517 | 63 | 187 | 2.0 | 3.0 | 0.00 | 0.00 | 0.00 | 44 | 1301.9 |
| 20260507190016 | 62 | 263 | 2.0 | 2.0 | 0.00 | 0.00 | 0.00 | 40 | 1302.3 |
| 20260507185514 | 60 | 238 | 5.0 | 7.0 | 0.00 | 0.00 | 0.00 | 38 | 1302.0 |
| 20260507185010 | 62 | 304 | 2.0 | 3.0 | 0.00 | 0.00 | 0.00 | 38 | 1302.1 |
| 20260507184509 | 62 | 129 | 1.0 | 1.0 | 0.00 | 0.00 | 0.00 | 36 | 1302.0 |
| 20260507184006 | 61 | 111 | 1.0 | 1.0 | 0.00 | 0.00 | 0.00 | 39 | 1302.3 |
| 20260507183502 | 60 | 216 | 2.0 | 3.0 | 0.00 | 0.00 | 0.00 | 36 | 1302.1 |
| 20260507182959 | 60 | 92 | 4.0 | 5.0 | 0.00 | 0.00 | 0.00 | 38 | 1302.3 |
| 20260507182455 | 60 | 137 | 1.0 | 2.0 | 0.00 | 0.00 | 0.00 | 36 | 1302.1 |
| 20260507181951 | 59 | 86 | 2.0 | 3.0 | 0.00 | 0.00 | 0.00 | 41 | 1302.1 |
| 20260507181448 | 59 | 44 | 2.0 | 3.0 | 0.00 | 0.00 | 0.00 | 38 | 1302.0 |
| 20260507180944 | 59 | 159 | 0.0 | 0.0 | 0.00 | 0.00 | 0.00 | 37 | 1302.1 |
| 20260507180441 | 59 | 200 | 1.0 | 1.0 | 0.00 | 0.00 | 0.00 | 39 | 1302.3 |
| 20260507175937 | 59 | 325 | 3.0 | 3.0 | 0.00 | 0.00 | 0.00 | 35 | 1302.4 |
| 20260507175434 | 59 | 336 | 4.0 | 5.0 | 0.00 | 0.00 | 0.00 | 36 | 1302.5 |
| 20260507174932 | 60 | 63 | 1.0 | 2.0 | 0.00 | 0.00 | 0.00 | 35 | 1302.4 |
| 20260507174429 | 60 | 147 | 1.0 | 1.0 | 0.00 | 0.00 | 0.00 | 36 | 1302.6 |
| 20260507173926 | 60 | 5 | 3.0 | 3.0 | 0.00 | 0.00 | 0.00 | 37 | 1302.5 |
| 20260507173423 | 59 | 340 | 2.0 | 3.0 | 0.00 | 0.00 | 0.00 | 40 | 1303.0 |
| 20260507172920 | 59 | 119 | 4.0 | 6.0 | 0.00 | 0.00 | 0.00 | 35 | 1302.5 |
| 20260507172416 | 59 | 247 | 4.0 | 5.0 | 0.00 | 0.00 | 0.00 | 37 | 1302.9 |
| 20260507171912 | 59 | 208 | 3.0 | 5.0 | 0.00 | 0.00 | 0.00 | 36 | 1302.9 |
| 20260507171409 | 59 | 167 | 3.0 | 3.0 | 0.00 | 0.00 | 0.00 | 40 | 1303.0 |
| 20260507170906 | 59 | 79 | 1.0 | 1.0 | 0.00 | 0.00 | 0.00 | 35 | 1302.8 |
| 20260507170403 | 59 | 321 | 4.0 | 5.0 | 0.00 | 0.00 | 0.00 | 36 | 1303.0 |
| 20260507165859 | 58 | 200 | 1.0 | 2.0 | 0.00 | 0.00 | 0.00 | 39 | 1303.0 |
| 20260507165355 | 59 | 287 | 5.0 | 6.0 | 0.00 | 0.00 | 0.00 | 40 | 1303.0 |
| 20260507164851 | 58 | 121 | 2.0 | 2.0 | 0.00 | 0.00 | 0.00 | 40 | 1303.2 |
| 20260507164348 | 57 | 260 | 3.0 | 6.0 | 0.00 | 0.00 | 0.00 | 39 | 1303.1 |
| 20260507163845 | 57 | 161 | 1.0 | 2.0 | 0.00 | 0.00 | 0.00 | 38 | 1303.0 |
| 20260507163343 | 58 | 232 | 3.0 | 3.0 | 0.00 | 0.00 | 0.00 | 38 | 1303.0 |
| 20260507162839 | 57 | 136 | 3.0 | 3.0 | 0.00 | 0.00 | 0.00 | 41 | 1303.4 |
| 20260507162335 | 57 | 124 | 1.0 | 2.0 | 0.00 | 0.00 | 0.00 | 41 | 1303.2 |
| 20260507161832 | 57 | 210 | 4.0 | 7.0 | 0.00 | 0.00 | 0.00 | 40 | 1303.0 |
| 20260507161328 | 56 | 57 | 3.0 | 3.0 | 0.00 | 0.00 | 0.00 | 42 | 1303.2 |
| 20260507160825 | 55 | 211 | 4.0 | 6.0 | 0.00 | 0.00 | 0.00 | 43 | 1303.2 |
| 20260507160321 | 55 | 309 | 4.0 | 5.0 | 0.00 | 0.00 | 0.00 | 41 | 1303.4 |
| 20260507155818 | 55 | 29 | 3.0 | 3.0 | 0.00 | 0.00 | 0.00 | 42 | 1303.1 |
| 20260507155313 | 54 | 190 | 1.0 | 2.0 | 0.00 | 0.00 | 0.00 | 42 | 1303.2 |
| 20260507154810 | 54 | 357 | 2.0 | 3.0 | 0.00 | 0.00 | 0.00 | 42 | 1303.5 |
| 20260507154307 | 53 | 2 | 3.0 | 5.0 | 0.00 | 0.00 | 0.00 | 43 | 1303.6 |
| 20260507153804 | 53 | 12 | 4.0 | 6.0 | 0.00 | 0.00 | 0.00 | 43 | 1303.5 |
| 20260507153300 | 53 | 250 | 2.0 | 2.0 | 0.00 | 0.00 | 0.00 | 46 | 1303.5 |
| 20260507152757 | 52 | 199 | 2.0 | 2.0 | 0.00 | 0.00 | 0.00 | 45 | 1303.4 |
| 20260507152253 | 52 | 349 | 4.0 | 5.0 | 0.00 | 0.00 | 0.00 | 46 | 1303.5 |
| 20260507151749 | 51 | 325 | 5.0 | 8.0 | 0.00 | 0.00 | 0.00 | 47 | 1303.5 |
| 20260507151246 | 51 | 287 | 6.0 | 8.0 | 0.00 | 0.00 | 0.00 | 46 | 1303.4 |
| 20260507150743 | 50 | 5 | 5.0 | 6.0 | 0.00 | 0.00 | 0.00 | 47 | 1303.2 |
| 20260507150240 | 50 | 299 | 3.0 | 3.0 | 0.00 | 0.00 | 0.00 | 47 | 1303.4 |
| 20260507145736 | 49 | 308 | 2.0 | 5.0 | 0.00 | 0.00 | 0.00 | 49 | 1303.4 |
| 20260507145232 | 49 | 73 | 5.0 | 7.0 | 0.00 | 0.00 | 0.00 | 49 | 1303.5 |
| 20260507144729 | 49 | 33 | 4.0 | 6.0 | 0.00 | 0.00 | 0.00 | 50 | 1303.6 |
| 20260507144227 | 48 | 31 | 2.0 | 2.0 | 0.00 | 0.00 | 0.00 | 51 | 1303.4 |
| 20260507143723 | 47 | 6 | 4.0 | 5.0 | 0.00 | 0.00 | 0.00 | 51 | 1303.4 |
| 20260507143221 | 47 | 324 | 5.0 | 6.0 | 0.00 | 0.00 | 0.00 | 51 | 1303.7 |
| 20260507142716 | 47 | 0 | 4.0 | 5.0 | 0.00 | 0.00 | 0.00 | 51 | 1303.5 |
| 20260507142213 | 46 | 330 | 4.0 | 5.0 | 0.00 | 0.00 | 0.00 | 52 | 1303.6 |
| 20260507141709 | 46 | 67 | 3.0 | 5.0 | 0.00 | 0.00 | 0.00 | 54 | 1303.7 |
| 20260507141207 | 45 | 343 | 2.0 | 3.0 | 0.00 | 0.00 | 0.00 | 55 | 1303.6 |
| 20260507140702 | 45 | 203 | 4.0 | 5.0 | 0.00 | 0.00 | 0.00 | 52 | 1303.7 |
| 20260507140200 | 44 | 358 | 4.0 | 5.0 | 0.00 | 0.00 | 0.00 | 54 | 1303.7 |
| 20260507135657 | 43 | 351 | 6.0 | 7.0 | 0.00 | 0.00 | 0.00 | 54 | 1303.7 |
| 20260507135154 | 43 | 347 | 4.0 | 7.0 | 0.00 | 0.00 | 0.00 | 55 | 1303.5 |
| 20260507134650 | 42 | 17 | 5.0 | 7.0 | 0.00 | 0.00 | 0.00 | 54 | 1303.5 |
| 20260507134147 | 42 | 0 | 5.0 | 7.0 | 0.00 | 0.00 | 0.00 | 54 | 1303.4 |
| 20260507133643 | 42 | 349 | 6.0 | 7.0 | 0.00 | 0.00 | 0.00 | 54 | 1303.4 |
| 20260507133141 | 41 | 2 | 7.0 | 8.0 | 0.00 | 0.00 | 0.00 | 55 | 1303.5 |
| 20260507132638 | 41 | 22 | 4.0 | 6.0 | 0.00 | 0.00 | 0.00 | 56 | 1303.5 |
| 20260507132133 | 40 | 3 | 5.0 | 7.0 | 0.00 | 0.00 | 0.00 | 56 | 1303.2 |
| 20260507131631 | 40 | 28 | 5.0 | 7.0 | 0.00 | 0.00 | 0.00 | 56 | 1302.6 |
| 20260507131128 | 39 | 44 | 5.0 | 7.0 | 0.00 | 0.00 | 0.00 | 56 | 1302.9 |
| 20260507130624 | 39 | 346 | 5.0 | 6.0 | 0.00 | 0.00 | 0.00 | 58 | 1303.0 |
| 20260507130123 | 38 | 21 | 4.0 | 6.0 | 0.00 | 0.00 | 0.00 | 59 | 1303.0 |
| 20260507125621 | 38 | 22 | 3.0 | 3.0 | 0.00 | 0.00 | 0.00 | 59 | 1303.5 |
| 20260507125118 | 37 | 351 | 5.0 | 7.0 | 0.00 | 0.00 | 0.00 | 60 | 1302.9 |
| 20260507124614 | 37 | 16 | 5.0 | 8.0 | 0.00 | 0.00 | 0.00 | 59 | 1302.9 |
| 20260507124112 | 37 | 347 | 7.0 | 9.0 | 0.00 | 0.00 | 0.00 | 58 | 1303.0 |
| 20260507123610 | 37 | 1 | 7.0 | 8.0 | 0.00 | 0.00 | 0.00 | 58 | 1302.6 |
| 20260507123107 | 37 | 8 | 7.0 | 8.0 | 0.00 | 0.00 | 0.00 | 58 | 1302.8 |
| 20260507122602 | 37 | 21 | 7.0 | 8.0 | 0.00 | 0.00 | 0.00 | 58 | 1302.8 |
| 20260507122058 | 37 | 338 | 5.0 | 6.0 | 0.00 | 0.00 | 0.00 | 58 | 1302.8 |
| 20260507121554 | 36 | 349 | 5.0 | 7.0 | 0.00 | 0.00 | 0.00 | 58 | 1302.6 |
| 20260507121050 | 36 | 353 | 6.0 | 7.0 | 0.00 | 0.00 | 0.00 | 60 | 1302.8 |
| 20260507120546 | 36 | 16 | 5.0 | 7.0 | 0.00 | 0.00 | 0.00 | 61 | 1302.9 |
| 20260507120043 | 36 | 11 | 4.0 | 5.0 | 0.00 | 0.00 | 0.00 | 59 | 1302.5 |
| 20260507115540 | 36 | 331 | 5.0 | 8.0 | 0.00 | 0.00 | 0.00 | 60 | 1302.6 |
| 20260507115036 | 35 | 314 | 4.0 | 5.0 | 0.00 | 0.00 | 0.00 | 60 | 1302.5 |
| 20260507114531 | 35 | 350 | 4.0 | 5.0 | 0.00 | 0.00 | 0.00 | 60 | 1302.9 |
| 20260507114029 | 35 | 321 | 3.0 | 5.0 | 0.00 | 0.00 | 0.00 | 60 | 1302.9 |
| 20260507113526 | 35 | 3 | 4.0 | 5.0 | 0.00 | 0.00 | 0.00 | 60 | 1302.9 |
| 20260507113024 | 35 | 346 | 5.0 | 7.0 | 0.00 | 0.00 | 0.00 | 60 | 1302.8 |
| 20260507112521 | 35 | 10 | 5.0 | 6.0 | 0.00 | 0.00 | 0.00 | 60 | 1302.8 |
| 20260507112017 | 36 | 355 | 3.0 | 3.0 | 0.00 | 0.00 | 0.00 | 58 | 1302.9 |
| 20260507111515 | 35 | 4 | 6.0 | 7.0 | 0.00 | 0.00 | 0.00 | 58 | 1302.8 |
| 20260507111011 | 35 | 38 | 6.0 | 8.0 | 0.00 | 0.00 | 0.00 | 58 | 1302.5 |
| 20260507110508 | 35 | 71 | 4.0 | 5.0 | 0.00 | 0.00 | 0.00 | 59 | 1302.8 |
| 20260507110004 | 35 | 4 | 4.0 | 6.0 | 0.00 | 0.00 | 0.00 | 59 | 1302.9 |
| 20260507105501 | 35 | 345 | 3.0 | 3.0 | 0.00 | 0.00 | 0.00 | 59 | 1302.9 |
| 20260507104957 | 35 | 345 | 3.0 | 5.0 | 0.00 | 0.00 | 0.00 | 60 | 1302.9 |
| 20260507104455 | 35 | 350 | 5.0 | 6.0 | 0.00 | 0.00 | 0.00 | 59 | 1302.8 |
| 20260507103950 | 35 | 335 | 5.0 | 6.0 | 0.00 | 0.00 | 0.00 | 60 | 1302.6 |
| 20260507103447 | 35 | 25 | 3.0 | 3.0 | 0.00 | 0.00 | 0.00 | 60 | 1302.6 |
| 20260507102943 | 35 | 29 | 5.0 | 8.0 | 0.00 | 0.00 | 0.00 | 60 | 1302.8 |
| 20260507102440 | 35 | 359 | 5.0 | 6.0 | 0.00 | 0.00 | 0.00 | 60 | 1302.8 |
| 20260507101937 | 35 | 8 | 5.0 | 6.0 | 0.00 | 0.00 | 0.00 | 61 | 1302.8 |
| 20260507101432 | 35 | 16 | 4.0 | 6.0 | 0.00 | 0.00 | 0.00 | 60 | 1303.0 |
| 20260507100928 | 35 | 20 | 4.0 | 5.0 | 0.00 | 0.00 | 0.00 | 60 | 1303.0 |
| 20260507100426 | 35 | 355 | 5.0 | 7.0 | 0.00 | 0.00 | 0.00 | 61 | 1302.8 |
| 20260507095924 | 35 | 347 | 4.0 | 5.0 | 0.00 | 0.00 | 0.00 | 60 | 1303.2 |
| 20260507095421 | 35 | 21 | 3.0 | 5.0 | 0.00 | 0.00 | 0.00 | 61 | 1303.1 |
| 20260507094918 | 35 | 34 | 4.0 | 5.0 | 0.00 | 0.00 | 0.00 | 63 | 1302.9 |
| 20260507094414 | 35 | 49 | 3.0 | 3.0 | 0.00 | 0.00 | 0.00 | 63 | 1302.9 |
| 20260507093911 | 34 | 357 | 5.0 | 6.0 | 0.00 | 0.00 | 0.00 | 63 | 1303.1 |
| 20260507093409 | 35 | 44 | 2.0 | 2.0 | 0.00 | 0.00 | 0.00 | 64 | 1303.0 |
| 20260507092908 | 34 | 24 | 1.0 | 1.0 | 0.00 | 0.00 | 0.00 | 65 | 1303.0 |
| 20260507092403 | 34 | 17 | 2.0 | 2.0 | 0.00 | 0.00 | 0.00 | 65 | 1302.9 |
| 20260507091900 | 34 | 30 | 5.0 | 6.0 | 0.00 | 0.00 | 0.00 | 66 | 1302.8 |
| 20260507091356 | 34 | 351 | 5.0 | 6.0 | 0.00 | 0.00 | 0.00 | 67 | 1303.2 |
| 20260507090852 | 33 | 4 | 4.0 | 6.0 | 0.00 | 0.00 | 0.00 | 68 | 1303.2 |
| 20260507090349 | 33 | 61 | 4.0 | 6.0 | 0.00 | 0.00 | 0.00 | 70 | 1303.4 |
| 20260507085846 | 33 | 31 | 3.0 | 5.0 | 0.00 | 0.00 | 0.00 | 70 | 1303.5 |
| 20260507085342 | 33 | 14 | 4.0 | 5.0 | 0.00 | 0.00 | 0.00 | 70 | 1303.4 |
| 20260507084840 | 33 | 1 | 5.0 | 6.0 | 0.00 | 0.00 | 0.00 | 70 | 1303.4 |
| 20260507084336 | 32 | 18 | 3.0 | 5.0 | 0.00 | 0.00 | 0.00 | 76 | 1303.7 |
| 20260507083834 | 32 | 14 | 3.0 | 5.0 | 0.00 | 0.00 | 0.00 | 78 | 1303.2 |
| 20260507083330 | 31 | 356 | 2.0 | 2.0 | 0.00 | 0.00 | 0.00 | 80 | 1303.5 |
| 20260507082826 | 31 | 64 | 1.0 | 1.0 | 0.00 | 0.00 | 0.00 | 81 | 1303.4 |
| 20260507082322 | 31 | 40 | 3.0 | 3.0 | 0.00 | 0.00 | 0.00 | 82 | 1303.5 |
| 20260507081819 | 31 | 70 | 1.0 | 1.0 | 0.00 | 0.00 | 0.00 | 83 | 1303.4 |
| 20260507081315 | 31 | 62 | 3.0 | 3.0 | 0.00 | 0.00 | 0.00 | 85 | 1303.5 |
| 20260507080812 | 31 | 71 | 1.0 | 2.0 | 0.00 | 0.00 | 0.00 | 85 | 1303.5 |
| 20260507080308 | 31 | 47 | 2.0 | 2.0 | 0.00 | 0.00 | 0.00 | 89 | 1303.7 |
| 20260507075803 | 30 | 52 | 0.0 | 1.0 | 0.00 | 0.00 | 0.00 | 93 | 1303.5 |
| 20260507075300 | 30 | 28 | 3.0 | 3.0 | 0.00 | 0.00 | 0.00 | 97 | 1303.6 |
| 20260507074756 | 29 | 39 | 2.0 | 2.0 | 0.00 | 0.00 | 0.00 | 99 | 1303.9 |
| 20260507074255 | 29 | 28 | 2.0 | 2.0 | 0.00 | 0.00 | 0.00 | 99 | 1303.7 |
| 20260507073751 | 28 | 70 | 1.0 | 2.0 | 0.00 | 0.00 | 0.00 | 99 | 1303.9 |
| 20260507073248 | 28 | 88 | 0.0 | 0.0 | 0.00 | 0.00 | 0.00 | 99 | 1303.7 |
| 20260507072745 | 27 | 93 | 0.0 | 0.0 | 0.00 | 0.00 | 0.00 | 99 | 1303.9 |
| 20260507072243 | 27 | 99 | 0.0 | 0.0 | 0.00 | 0.00 | 0.00 | 99 | 1303.7 |
| 20260507071740 | 27 | 113 | 0.0 | 0.0 | 0.00 | 0.00 | 0.00 | 99 | 1304.1 |
| 20260507071236 | 28 | 98 | 0.0 | 0.0 | 0.00 | 0.00 | 0.00 | 99 | 1304.0 |
| 20260507070733 | 28 | 104 | 0.0 | 0.0 | 0.00 | 0.00 | 0.00 | 99 | 1303.9 |
| 20260507070230 | 28 | 93 | 0.0 | 0.0 | 0.00 | 0.00 | 0.00 | 99 | 1303.9 |
| 20260507065727 | 27 | 109 | 0.0 | 0.0 | 0.00 | 0.00 | 0.00 | 99 | 1303.9 |
| 20260507065224 | 28 | 109 | 0.0 | 0.0 | 0.00 | 0.00 | 0.00 | 99 | 1304.1 |
| 20260507064721 | 28 | 110 | 0.0 | 0.0 | 0.00 | 0.00 | 0.00 | 99 | 1304.2 |
| 20260507064220 | 28 | 93 | 0.0 | 0.0 | 0.00 | 0.00 | 0.00 | 99 | 1303.7 |
| 20260507063716 | 28 | 83 | 0.0 | 0.0 | 0.00 | 0.00 | 0.00 | 99 | 1303.9 |
| 20260507063213 | 28 | 99 | 0.0 | 0.0 | 0.00 | 0.00 | 0.00 | 99 | 1303.9 |
| 20260507062710 | 28 | 89 | 0.0 | 0.0 | 0.00 | 0.00 | 0.00 | 99 | 1304.1 |
| 20260507062208 | 29 | 88 | 0.0 | 0.0 | 0.00 | 0.00 | 0.00 | 99 | 1303.9 |
| 20260507061706 | 29 | 79 | 0.0 | 1.0 | 0.00 | 0.00 | 0.00 | 99 | 1303.7 |
| 20260507061203 | 29 | 105 | 0.0 | 0.0 | 0.00 | 0.00 | 0.00 | 99 | 1303.7 |
| 20260507060701 | 29 | 92 | 0.0 | 0.0 | 0.00 | 0.00 | 0.00 | 99 | 1303.7 |
| 20260507060157 | 29 | 99 | 0.0 | 0.0 | 0.00 | 0.00 | 0.00 | 99 | 1304.0 |
| 20260507055653 | 29 | 92 | 0.0 | 0.0 | 0.00 | 0.17 | 0.17 | 99 | 1303.9 |
| 20260507055149 | 29 | 106 | 0.0 | 0.0 | 0.00 | 0.17 | 0.17 | 99 | 1304.0 |
| 20260507054645 | 29 | 83 | 0.0 | 0.0 | 0.00 | 0.17 | 0.17 | 99 | 1303.7 |
| 20260507054142 | 29 | 96 | 0.0 | 0.0 | 0.00 | 0.17 | 0.17 | 99 | 1303.6 |
| 20260507053640 | 29 | 93 | 0.0 | 0.0 | 0.00 | 0.17 | 0.17 | 99 | 1303.6 |
| 20260507053138 | 29 | 93 | 1.0 | 1.0 | 0.00 | 0.17 | 0.17 | 99 | 1304.0 |
| 20260507052637 | 29 | 94 | 0.0 | 1.0 | 0.00 | 0.17 | 0.17 | 99 | 1303.9 |
| 20260507052132 | 30 | 113 | 0.0 | 0.0 | 0.00 | 0.17 | 0.17 | 99 | 1303.6 |
| 20260507051630 | 30 | 129 | 1.0 | 1.0 | 0.00 | 0.17 | 0.17 | 99 | 1303.9 |
| 20260507051126 | 30 | 100 | 0.0 | 0.0 | 0.00 | 0.17 | 0.17 | 99 | 1303.6 |
| 20260507050624 | 30 | 127 | 1.0 | 2.0 | 0.00 | 0.17 | 0.17 | 99 | 1303.7 |
| 20260507050120 | 30 | 109 | 0.0 | 0.0 | 0.00 | 0.17 | 0.17 | 99 | 1303.5 |
| 20260507045617 | 30 | 104 | 2.0 | 2.0 | 0.00 | 0.17 | 0.17 | 99 | 1303.7 |
| 20260507045108 | 30 | 105 | 3.0 | 3.0 | 0.00 | 0.17 | 0.17 | 99 | 1303.5 |
| 20260507044604 | 30 | 105 | 2.0 | 3.0 | 0.00 | 0.17 | 0.17 | 99 | 1303.7 |
| 20260507044102 | 31 | 135 | 2.0 | 2.0 | 0.00 | 0.17 | 0.17 | 99 | 1303.7 |
| 20260507043557 | 31 | 122 | 3.0 | 5.0 | 0.00 | 0.17 | 0.17 | 99 | 1303.7 |
| 20260507043055 | 31 | 112 | 2.0 | 2.0 | 0.00 | 0.17 | 0.17 | 99 | 1303.6 |
| 20260507042551 | 31 | 104 | 0.0 | 0.0 | 0.00 | 0.17 | 0.17 | 99 | 1303.6 |
| 20260507042046 | 31 | 134 | 2.0 | 2.0 | 0.00 | 0.17 | 0.17 | 99 | 1303.7 |
| 20260507041544 | 31 | 157 | 3.0 | 3.0 | 0.00 | 0.17 | 0.17 | 99 | 1303.6 |
| 20260507041040 | 31 | 109 | 2.0 | 2.0 | 0.00 | 0.17 | 0.17 | 99 | 1303.7 |
| 20260507040537 | 31 | 108 | 1.0 | 1.0 | 0.00 | 0.17 | 0.17 | 98 | 1303.6 |
| 20260507040033 | 31 | 121 | 2.0 | 2.0 | 0.00 | 0.17 | 0.17 | 98 | 1304.0 |
| 20260507035529 | 31 | 112 | 4.0 | 5.0 | 0.00 | 0.17 | 0.17 | 97 | 1303.7 |
| 20260507035026 | 31 | 106 | 2.0 | 2.0 | 0.00 | 0.17 | 0.17 | 96 | 1303.7 |
| 20260507034523 | 31 | 110 | 1.0 | 1.0 | 0.00 | 0.17 | 0.17 | 96 | 1303.6 |
| 20260507034021 | 31 | 144 | 2.0 | 5.0 | 0.00 | 0.17 | 0.17 | 95 | 1303.9 |
| 20260507033519 | 31 | 98 | 2.0 | 2.0 | 0.00 | 0.17 | 0.17 | 95 | 1303.7 |
| 20260507033015 | 31 | 102 | 2.0 | 2.0 | 0.00 | 0.17 | 0.17 | 95 | 1303.6 |
| 20260507032512 | 32 | 104 | 1.0 | 2.0 | 0.00 | 0.17 | 0.17 | 94 | 1303.6 |
| 20260507032008 | 32 | 127 | 3.0 | 3.0 | 0.00 | 0.17 | 0.17 | 94 | 1303.6 |
| 20260507031504 | 32 | 118 | 3.0 | 3.0 | 0.00 | 0.17 | 0.17 | 93 | 1303.2 |
| 20260507031002 | 32 | 125 | 2.0 | 2.0 | 0.00 | 0.17 | 0.17 | 92 | 1303.6 |
| 20260507030459 | 32 | 111 | 1.0 | 1.0 | 0.00 | 0.17 | 0.17 | 92 | 1303.2 |
| 20260507025956 | 32 | 131 | 0.0 | 1.0 | 0.00 | 0.17 | 0.17 | 91 | 1303.2 |
| 20260507025453 | 32 | 105 | 1.0 | 2.0 | 0.00 | 0.17 | 0.17 | 91 | 1303.6 |
| 20260507024951 | 32 | 102 | 1.0 | 1.0 | 0.00 | 0.17 | 0.17 | 91 | 1303.4 |
| 20260507024448 | 32 | 158 | 2.0 | 2.0 | 0.00 | 0.17 | 0.17 | 90 | 1303.2 |
| 20260507023944 | 32 | 85 | 2.0 | 2.0 | 0.00 | 0.17 | 0.17 | 90 | 1303.1 |
| 20260507023441 | 32 | 118 | 1.0 | 1.0 | 0.00 | 0.17 | 0.17 | 90 | 1303.2 |
| 20260507022938 | 32 | 115 | 1.0 | 1.0 | 0.00 | 0.17 | 0.17 | 89 | 1303.1 |
| 20260507022435 | 33 | 96 | 0.0 | 1.0 | 0.00 | 0.17 | 0.17 | 88 | 1303.2 |
| 20260507021930 | 33 | 140 | 0.0 | 1.0 | 0.00 | 0.17 | 0.17 | 87 | 1303.4 |
| 20260507021425 | 33 | 165 | 2.0 | 5.0 | 0.00 | 0.17 | 0.17 | 86 | 1303.1 |
| 20260507020924 | 33 | 175 | 3.0 | 3.0 | 0.00 | 0.17 | 0.17 | 86 | 1303.5 |
| 20260507020420 | 33 | 121 | 2.0 | 2.0 | 0.00 | 0.17 | 0.17 | 86 | 1303.1 |
| 20260507015917 | 33 | 146 | 1.0 | 2.0 | 0.00 | 0.17 | 0.17 | 86 | 1303.0 |
| 20260507015415 | 33 | 110 | 1.0 | 1.0 | 0.00 | 0.17 | 0.17 | 85 | 1303.1 |
| 20260507014912 | 34 | 109 | 1.0 | 1.0 | 0.00 | 0.17 | 0.17 | 85 | 1303.1 |
| 20260507014409 | 34 | 102 | 0.0 | 1.0 | 0.00 | 0.17 | 0.17 | 85 | 1302.8 |
| 20260507013905 | 34 | 135 | 0.0 | 1.0 | 0.00 | 0.17 | 0.17 | 83 | 1303.1 |
| 20260507013402 | 35 | 80 | 3.0 | 5.0 | 0.00 | 0.17 | 0.17 | 82 | 1303.1 |
| 20260507012900 | 35 | 182 | 1.0 | 3.0 | 0.00 | 0.17 | 0.17 | 82 | 1303.1 |
| 20260507012355 | 36 | 175 | 2.0 | 3.0 | 0.00 | 0.17 | 0.17 | 80 | 1302.9 |
| 20260507011853 | 36 | 122 | 2.0 | 3.0 | 0.00 | 0.17 | 0.17 | 79 | 1302.9 |
| 20260507011350 | 36 | 220 | 1.0 | 1.0 | 0.00 | 0.17 | 0.17 | 79 | 1303.0 |
| 20260507010849 | 36 | 194 | 3.0 | 3.0 | 0.00 | 0.17 | 0.17 | 78 | 1302.9 |
| 20260507010345 | 36 | 158 | 4.0 | 5.0 | 0.00 | 0.17 | 0.17 | 78 | 1302.4 |
| 20260507005843 | 37 | 195 | 3.0 | 3.0 | 0.00 | 0.17 | 0.17 | 77 | 1302.9 |
| 20260507005339 | 38 | 221 | 3.0 | 8.0 | 0.00 | 0.17 | 0.17 | 77 | 1302.9 |
| 20260507004836 | 37 | 101 | 2.0 | 2.0 | 0.00 | 0.17 | 0.17 | 77 | 1303.0 |
| 20260507004333 | 38 | 208 | 1.0 | 2.0 | 0.00 | 0.17 | 0.17 | 77 | 1302.9 |
| 20260507003830 | 36 | 100 | 0.0 | 0.0 | 0.00 | 0.17 | 0.17 | 78 | 1302.9 |
| 20260507003326 | 36 | 98 | 1.0 | 1.0 | 0.00 | 0.17 | 0.17 | 78 | 1302.8 |
| 20260507002821 | 36 | 93 | 3.0 | 3.0 | 0.00 | 0.17 | 0.17 | 78 | 1302.9 |
| 20260507002317 | 37 | 100 | 2.0 | 5.0 | 0.00 | 0.17 | 0.17 | 77 | 1302.6 |
| 20260507001815 | 37 | 92 | 5.0 | 6.0 | 0.00 | 0.17 | 0.17 | 75 | 1302.5 |
| 20260507001312 | 38 | 172 | 4.0 | 6.0 | 0.00 | 0.17 | 0.17 | 76 | 1302.8 |
| 20260507000808 | 38 | 109 | 0.0 | 1.0 | 0.00 | 0.17 | 0.17 | 76 | 1302.6 |
| 20260507000306 | 37 | 96 | 2.0 | 2.0 | 0.00 | 0.17 | 0.17 | 76 | 1302.8 |
| 20260506235800 | 39 | 181 | 4.0 | 6.0 | 0.00 | 0.17 | 0.17 | 74 | 1302.6 |
| 20260506235256 | 39 | 234 | 4.0 | 5.0 | 0.00 | 0.17 | 0.17 | 72 | 1302.5 |
| 20260506234748 | 38 | 182 | 2.0 | 2.0 | 0.00 | 0.17 | 0.17 | 74 | 1302.6 |
| 20260506234245 | 39 | 210 | 2.0 | 2.0 | 0.00 | 0.17 | 0.17 | 72 | 1302.4 |
| 20260506233742 | 40 | 210 | 1.0 | 2.0 | 0.00 | 0.17 | 0.17 | 75 | 1302.8 |
| 20260506233238 | 38 | 70 | 1.0 | 1.0 | 0.00 | 0.17 | 0.17 | 73 | 1302.4 |
| 20260506232735 | 38 | 74 | 2.0 | 2.0 | 0.00 | 0.17 | 0.17 | 75 | 1302.6 |
| 20260506232230 | 38 | 93 | 0.0 | 0.0 | 0.00 | 0.17 | 0.17 | 76 | 1302.8 |
| 20260506231727 | 38 | 227 | 2.0 | 3.0 | 0.00 | 0.17 | 0.17 | 75 | 1303.0 |
| 20260506231226 | 37 | 201 | 3.0 | 5.0 | 0.00 | 0.17 | 0.17 | 76 | 1302.5 |
| 20260506230722 | 37 | 138 | 0.0 | 1.0 | 0.00 | 0.17 | 0.17 | 77 | 1302.9 |
| 20260506230219 | 35 | 121 | 0.0 | 1.0 | 0.00 | 0.17 | 0.17 | 77 | 1302.6 |
| 20260506225716 | 36 | 130 | 0.0 | 0.0 | 0.00 | 0.17 | 0.17 | 76 | 1302.6 |
| 20260506225213 | 37 | 106 | 0.0 | 1.0 | 0.00 | 0.17 | 0.17 | 79 | 1302.4 |
| 20260506224709 | 36 | 56 | 1.0 | 1.0 | 0.00 | 0.17 | 0.17 | 78 | 1302.5 |
| 20260506224207 | 35 | 125 | 0.0 | 0.0 | 0.00 | 0.17 | 0.17 | 77 | 1302.6 |
| 20260506223702 | 36 | 16 | 2.0 | 2.0 | 0.00 | 0.17 | 0.17 | 79 | 1302.5 |
| 20260506223158 | 35 | 18 | 4.0 | 7.0 | 0.00 | 0.17 | 0.17 | 80 | 1302.6 |
| 20260506222656 | 35 | 32 | 2.0 | 2.0 | 0.00 | 0.17 | 0.17 | 80 | 1302.4 |
| 20260506222151 | 35 | 321 | 5.0 | 7.0 | 0.00 | 0.17 | 0.17 | 81 | 1302.6 |
| 20260506221649 | 35 | 103 | 1.0 | 2.0 | 0.00 | 0.17 | 0.17 | 82 | 1303.0 |
| 20260506221147 | 35 | 99 | 1.0 | 1.0 | 0.00 | 0.17 | 0.17 | 78 | 1302.9 |
| 20260506220643 | 35 | 125 | 2.0 | 3.0 | 0.00 | 0.17 | 0.17 | 79 | 1302.8 |
| 20260506220138 | 36 | 221 | 3.0 | 3.0 | 0.00 | 0.17 | 0.17 | 80 | 1302.9 |
| 20260506215635 | 35 | 129 | 0.0 | 1.0 | 0.00 | 0.17 | 0.17 | 78 | 1302.9 |
| 20260506215131 | 35 | 116 | 0.0 | 1.0 | 0.00 | 0.17 | 0.17 | 79 | 1302.9 |
| 20260506214628 | 36 | 110 | 1.0 | 1.0 | 0.00 | 0.17 | 0.17 | 80 | 1303.0 |
| 20260506214126 | 36 | 235 | 3.0 | 3.0 | 0.00 | 0.17 | 0.17 | 82 | 1303.0 |
| 20260506213624 | 35 | 34 | 3.0 | 5.0 | 0.00 | 0.17 | 0.17 | 82 | 1302.8 |
| 20260506213121 | 36 | 9 | 3.0 | 7.0 | 0.00 | 0.17 | 0.17 | 84 | 1302.5 |
| 20260506212618 | 34 | 355 | 4.0 | 6.0 | 0.00 | 0.17 | 0.17 | 84 | 1302.9 |
| 20260506212113 | 35 | 24 | 3.0 | 5.0 | 0.00 | 0.17 | 0.17 | 83 | 1302.9 |
| 20260506211608 | 35 | 357 | 4.0 | 6.0 | 0.00 | 0.17 | 0.17 | 86 | 1302.9 |
| 20260506211106 | 33 | 17 | 2.0 | 2.0 | 0.00 | 0.17 | 0.17 | 86 | 1302.9 |
| 20260506210603 | 33 | 315 | 7.0 | 8.0 | 0.00 | 0.17 | 0.17 | 85 | 1302.9 |
| 20260506210059 | 34 | 346 | 4.0 | 5.0 | 0.00 | 0.17 | 0.17 | 88 | 1303.0 |
| 20260506205556 | 34 | 350 | 3.0 | 5.0 | 0.07 | 0.17 | 0.17 | 88 | 1303.2 |
| 20260506205051 | 33 | 60 | 3.0 | 3.0 | 0.07 | 0.17 | 0.17 | 87 | 1302.9 |
| 20260506204549 | 34 | 327 | 6.0 | 9.0 | 0.00 | 0.16 | 0.16 | 87 | 1302.6 |
| 20260506204045 | 35 | 102 | 2.0 | 2.0 | 0.05 | 0.16 | 0.16 | 88 | 1303.1 |
| 20260506203544 | 33 | 23 | 3.0 | 5.0 | 0.12 | 0.16 | 0.16 | 89 | 1303.0 |
| 20260506203040 | 34 | 348 | 4.0 | 6.0 | 0.12 | 0.15 | 0.15 | 89 | 1303.4 |
| 20260506202538 | 33 | 291 | 2.0 | 5.0 | 0.12 | 0.14 | 0.14 | 90 | 1303.0 |
| 20260506202034 | 33 | 342 | 6.0 | 8.0 | 0.12 | 0.13 | 0.13 | 88 | 1303.2 |
| 20260506201532 | 33 | 41 | 5.0 | 8.0 | 0.19 | 0.12 | 0.12 | 87 | 1303.1 |
| 20260506201028 | 34 | 315 | 6.0 | 7.0 | 0.24 | 0.10 | 0.10 | 86 | 1303.0 |